| Date | Time | Temp. (oF) | Dew Point (oF) | Rel. Hum. (%) | Press. (in.) | Wind Dir. | Wind Speed (mph) | Hourly Rainfall (in.) |
|
|---|---|---|---|---|---|---|---|---|---|
| 1 | 01/27 | 00:00 | 34 | 23 | 65 | 30.20 | SW | 0 | 0.00 |
| 2 | 01/26 | 23:00 | 39 | 24 | 56 | 30.19 | SSW | 0 | 0.00 |
| 3 | 01/26 | 22:00 | 41 | 23 | 49 | 30.19 | SSW | 3 | 0.00 |
| 4 | 01/26 | 21:00 | 44 | 23 | 45 | 30.20 | SSW | 4 | 0.00 |
| 5 | 01/26 | 20:00 | 45 | 22 | 40 | 30.19 | SSW | 4 | 0.00 |
| 6 | 01/26 | 19:00 | 48 | 22 | 37 | 30.19 | SSW | 3 | 0.00 |
| 7 | 01/26 | 18:00 | 50 | 22 | 34 | 30.18 | SSW | 2 | 0.00 |
| 8 | 01/26 | 17:00 | 51 | 24 | 35 | 30.17 | SSW | 4 | 0.00 |
| 9 | 01/26 | 16:00 | 53 | 22 | 30 | 30.17 | WSW | 2 | 0.00 |
| 10 | 01/26 | 15:00 | 54 | 23 | 30 | 30.16 | W | 8 | 0.00 |
| 11 | 01/26 | 14:00 | 54 | 23 | 30 | 30.16 | SSW | 7 | 0.00 |
| 12 | 01/26 | 13:00 | 53 | 25 | 34 | 30.19 | SSE | 8 | 0.00 |
| 13 | 01/26 | 12:00 | 51 | 26 | 38 | 30.23 | SSW | 7 | 0.00 |
| 14 | 01/26 | 11:00 | 47 | 23 | 39 | 30.26 | SW | 13 | 0.00 |
| 15 | 01/26 | 10:00 | 45 | 26 | 49 | 30.28 | SW | 4 | 0.00 |
| 16 | 01/26 | 09:00 | 32 | 27 | 82 | 30.27 | SW | 2 | 0.00 |
| 17 | 01/26 | 08:00 | 26 | 21 | 83 | 30.27 | WSW | 0 | 0.00 |
| 18 | 01/26 | 07:00 | 27 | 21 | 81 | 30.26 | SW | 1 | 0.00 |
| 19 | 01/26 | 06:00 | 30 | 21 | 71 | 30.25 | WSW | 0 | 0.00 |
| 20 | 01/26 | 05:00 | 34 | 21 | 61 | 30.25 | WSW | 1 | 0.00 |
| 21 | 01/26 | 04:00 | 35 | 22 | 61 | 30.25 | SSW | 3 | 0.00 |
| 22 | 01/26 | 03:00 | 29 | 21 | 74 | 30.24 | SSE | 0 | 0.00 |
| 23 | 01/26 | 02:00 | 30 | 22 | 73 | 30.23 | SSE | 0 | 0.00 |
| 24 | 01/26 | 01:00 | 30 | 23 | 75 | 30.22 | SSE | 1 | 0.00 |